Time;durP1;ratioP1;P1;durP2;ratioP2;P2;SDS_P1;SDS_P2;PMS_P1;PMS_P2;Temp;Humidity;BMP_temperature;BMP_pressure;BME280_temperature;BME280_humidity;BME280_pressure;Samples;Min_cycle;Max_cycle;Signal;HPM_P1;HPM_P2
2023/01/15 00:00:03;;;;;;;0.90;0.28;;;;;;;12.57;73.97;98226.13;343445;28;1016;-73
2023/01/15 00:00:15;;;;;;;0.45;0.30;;;;;;;12.57;73.78;98229.56;343548;28;1039;-72
2023/01/15 00:00:27;;;;;;;0.30;0.30;;;;;;;12.55;73.76;98233.19;342362;28;1079;-72
2023/01/15 00:00:39;;;;;;;0.30;0.30;;;;;;;12.55;74.00;98235.81;342434;28;1094;-72
2023/01/15 00:00:51;;;;;;;0.22;0.22;;;;;;;12.57;74.07;98229.56;342691;28;1752;-73
2023/01/15 00:01:04;;;;;;;0.63;0.30;;;;;;;12.51;73.79;98224.72;343571;28;1162;-72
2023/01/15 00:01:26;;;;;;;0.63;0.30;;;;;;;12.55;74.09;98230.59;344809;28;1109;-72
2023/01/15 00:01:38;;;;;;;0.40;0.30;;;;;;;12.55;73.96;98230.59;345742;28;1282;-72
2023/01/15 00:01:50;;;;;;;0.30;0.30;;;;;;;12.56;73.74;98229.69;346048;28;1060;-72
2023/01/15 00:02:02;;;;;;;0.30;0.20;;;;;;;12.57;73.94;98228.72;344703;28;1535;-73
2023/01/15 00:02:16;;;;;;;0.30;0.20;;;;;;;12.53;74.03;98225.47;343928;28;1106;-73
2023/01/15 00:02:30;;;;;;;0.30;0.20;;;;;;;12.56;74.05;98227.91;342910;28;1820;-73
2023/01/15 00:02:42;;;;;;;0.28;0.28;;;;;;;12.52;73.74;98226.41;343915;28;1276;-73
2023/01/15 00:02:54;;;;;;;0.30;0.30;;;;;;;12.50;73.50;98223.06;344189;28;1196;-73
2023/01/15 00:03:06;;;;;;;0.30;0.30;;;;;;;12.52;73.68;98215.16;342901;28;1631;-72
2023/01/15 00:03:18;;;;;;;0.20;0.20;;;;;;;12.50;73.71;98227.47;344931;28;1662;-73
2023/01/15 00:03:31;;;;;;;0.30;0.30;;;;;;;12.53;74.09;98222.03;345167;28;1050;-73
2023/01/15 00:03:43;;;;;;;0.40;0.30;;;;;;;12.59;74.12;98224.25;345213;28;960;-73
2023/01/15 00:03:58;;;;;;;0.32;0.30;;;;;;;12.50;74.37;98224.84;344225;28;2047;-73
2023/01/15 00:04:11;;;;;;;0.32;0.30;;;;;;;12.50;74.04;98223.06;344837;28;1230;-73
2023/01/15 00:04:23;;;;;;;0.40;0.30;;;;;;;12.48;74.29;98229.31;345978;28;1143;-73
2023/01/15 00:04:35;;;;;;;0.35;0.35;;;;;;;12.52;74.40;98225.59;346477;28;1116;-73
2023/01/15 00:04:50;;;;;;;0.38;0.38;;;;;;;12.55;73.94;98225.38;345054;28;1221;-73
2023/01/15 00:05:02;;;;;;;0.30;0.30;;;;;;;12.54;73.65;98208.91;344943;28;1993;-72
2023/01/15 00:05:14;;;;;;;0.28;0.28;;;;;;;12.58;73.74;98225.19;343321;28;1719;-73
2023/01/15 00:05:29;;;;;;;0.50;0.27;;;;;;;12.55;73.75;98220.16;342121;28;1159;-73
2023/01/15 00:05:41;;;;;;;0.45;0.30;;;;;;;12.59;73.74;98219.03;342264;28;1917;-73
2023/01/15 00:05:55;;;;;;;1.65;0.30;;;;;;;12.59;73.59;98219.88;343424;28;1087;-73
2023/01/15 00:06:10;;;;;;;1.60;0.30;;;;;;;12.57;73.71;98216.53;343677;28;905;-73
2023/01/15 00:06:23;;;;;;;1.05;0.30;;;;;;;12.56;73.98;98219.25;343348;28;1850;-73
2023/01/15 00:06:39;;;;;;;1.30;0.30;;;;;;;12.57;73.86;98223.50;343660;28;1212;-73
2023/01/15 00:06:53;;;;;;;0.75;0.30;;;;;;;12.53;73.78;98224.63;341792;28;1285;-73
2023/01/15 00:07:05;;;;;;;0.30;0.20;;;;;;;12.59;73.74;98224.25;342433;28;1087;-73
2023/01/15 00:07:17;;;;;;;0.20;0.20;;;;;;;12.60;73.68;98218.13;343517;28;1822;-73
2023/01/15 00:07:30;;;;;;;0.20;0.20;;;;;;;12.60;73.57;98220.72;342928;28;1226;-73
2023/01/15 00:07:42;;;;;;;0.20;0.20;;;;;;;12.60;73.59;98223.31;342939;28;1211;-72
2023/01/15 00:07:54;;;;;;;0.43;0.32;;;;;;;12.58;73.84;98218.22;343394;28;1056;-73
2023/01/15 00:08:06;;;;;;;0.70;0.40;;;;;;;12.61;73.63;98213.72;342479;28;1345;-72
2023/01/15 00:08:19;;;;;;;0.55;0.40;;;;;;;12.63;73.58;98217.91;341528;28;1535;-73
2023/01/15 00:08:31;;;;;;;0.60;0.40;;;;;;;12.63;73.55;98225.72;342193;28;1753;-73
2023/01/15 00:08:43;;;;;;;0.60;0.40;;;;;;;12.58;73.34;98228.63;340489;28;6757;-73
2023/01/15 00:08:55;;;;;;;0.45;0.30;;;;;;;12.59;73.75;98211.22;342135;28;6559;-72
2023/01/15 00:09:12;;;;;;;0.90;0.30;;;;;;;12.58;73.93;98217.38;342284;28;1079;-73
2023/01/15 00:09:24;;;;;;;1.00;0.30;;;;;;;12.57;73.80;98223.50;341993;28;6338;-73
2023/01/15 00:09:36;;;;;;;0.57;0.30;;;;;;;12.56;73.78;98211.44;345227;28;1054;-72
2023/01/15 00:09:49;;;;;;;0.43;0.30;;;;;;;12.54;73.88;98213.28;344410;28;1977;-73
2023/01/15 00:10:01;;;;;;;0.30;0.30;;;;;;;12.50;73.96;98219.63;343123;28;1813;-73
2023/01/15 00:10:13;;;;;;;0.25;0.25;;;;;;;12.51;74.07;98216.09;345175;28;1816;-73
2023/01/15 00:10:25;;;;;;;0.30;0.30;;;;;;;12.48;74.09;98213.69;345800;28;1377;-73
2023/01/15 00:10:37;;;;;;;0.38;0.30;;;;;;;12.48;74.22;98213.69;345203;28;900;-73
2023/01/15 00:10:49;;;;;;;0.30;0.30;;;;;;;12.50;73.97;98210.03;345104;28;1202;-73
2023/01/15 00:11:04;;;;;;;0.40;0.30;;;;;;;12.55;74.02;98214.94;343686;28;2060;-73
2023/01/15 00:11:16;;;;;;;0.70;0.40;;;;;;;12.55;73.73;98220.16;344627;28;1620;-72
2023/01/15 00:11:28;;;;;;;0.63;0.40;;;;;;;12.52;74.09;98213.38;343228;28;1901;-73
2023/01/15 00:11:40;;;;;;;0.43;0.40;;;;;;;12.54;74.16;98208.09;342239;28;1980;-72
2023/01/15 00:11:53;;;;;;;0.47;0.38;;;;;;;12.54;74.22;98221.94;342326;28;1483;-73
2023/01/15 00:12:05;;;;;;;0.60;0.30;;;;;;;12.55;74.27;98214.94;342522;28;1273;-72
2023/01/15 00:12:17;;;;;;;0.55;0.30;;;;;;;12.52;74.26;98209.94;343566;28;1220;-73
2023/01/15 00:12:30;;;;;;;0.30;0.20;;;;;;;12.53;74.48;98212.44;342747;28;1090;-73
2023/01/15 00:12:42;;;;;;;0.38;0.28;;;;;;;12.57;74.32;98202.66;339436;29;1893;-73
2023/01/15 00:12:54;;;;;;;1.35;0.40;;;;;;;12.56;74.40;98207.03;341131;28;1221;-73
2023/01/15 00:13:06;;;;;;;1.30;0.40;;;;;;;12.58;74.14;98205.19;340538;28;1803;-73
2023/01/15 00:13:17;;;;;;;1.20;0.40;;;;;;;12.61;74.30;98204.13;341264;28;1393;-73
2023/01/15 00:13:30;;;;;;;0.30;0.30;;;;;;;12.60;74.08;98207.69;341346;28;1542;-73
2023/01/15 00:13:42;;;;;;;0.32;0.32;;;;;;;12.60;74.27;98202.47;341393;28;1776;-73
2023/01/15 00:13:55;;;;;;;0.47;0.40;;;;;;;12.60;74.31;98197.25;342667;28;1013;-72
2023/01/15 00:14:07;;;;;;;0.43;0.40;;;;;;;12.64;74.03;98197.91;343529;28;1237;-72
2023/01/15 00:14:19;;;;;;;0.40;0.40;;;;;;;12.67;73.53;98198.53;343777;28;1333;-73
2023/01/15 00:14:31;;;;;;;0.40;0.30;;;;;;;12.72;73.41;98206.91;343632;28;1098;-73
2023/01/15 00:14:44;;;;;;;0.30;0.30;;;;;;;12.74;73.27;98204.19;342764;28;2395;-73
2023/01/15 00:14:57;;;;;;;0.30;0.30;;;;;;;12.72;73.12;98204.28;344320;28;1827;-73
2023/01/15 00:15:12;;;;;;;0.30;0.30;;;;;;;12.73;73.30;98197.28;345277;28;754;-73
2023/01/15 00:15:25;;;;;;;0.40;0.30;;;;;;;12.71;73.67;98200.00;345010;28;1224;-72
2023/01/15 00:15:37;;;;;;;0.40;0.30;;;;;;;12.70;73.43;98195.72;345031;28;1062;-72
2023/01/15 00:15:49;;;;;;;0.47;0.30;;;;;;;12.63;73.62;98191.84;344349;28;1917;-73
2023/01/15 00:16:13;;;;;;;0.50;0.30;;;;;;;12.66;73.84;98199.47;344847;28;1568;-73
2023/01/15 00:16:26;;;;;;;0.40;0.30;;;;;;;12.69;73.96;98201.88;344032;28;1422;-73
2023/01/15 00:16:42;;;;;;;0.47;0.30;;;;;;;12.77;73.58;98198.78;343684;28;1193;-72
2023/01/15 00:16:54;;;;;;;0.30;0.30;;;;;;;12.77;73.23;98199.59;343222;28;1889;-72
2023/01/15 00:17:06;;;;;;;0.30;0.30;;;;;;;12.83;73.07;98202.75;343658;28;1087;-72
2023/01/15 00:17:18;;;;;;;0.38;0.30;;;;;;;12.83;72.91;98202.75;343714;28;1297;-73
2023/01/15 00:17:30;;;;;;;0.47;0.38;;;;;;;12.82;73.13;98198.47;345053;28;1057;-73
2023/01/15 00:17:42;;;;;;;0.40;0.40;;;;;;;12.82;73.28;98195.84;345011;28;1058;-73
2023/01/15 00:17:54;;;;;;;0.40;0.40;;;;;;;12.79;73.18;98195.13;344915;28;1700;-73
2023/01/15 00:18:06;;;;;;;0.40;0.35;;;;;;;12.83;73.24;98200.16;344069;28;1776;-73
2023/01/15 00:18:21;;;;;;;0.40;0.32;;;;;;;12.74;73.26;98202.41;344874;28;1958;-73
2023/01/15 00:18:33;;;;;;;0.30;0.30;;;;;;;12.78;73.32;98196.06;344898;28;1054;-73
2023/01/15 00:18:50;;;;;;;0.30;0.30;;;;;;;12.73;73.03;98194.69;346231;28;1078;-72
2023/01/15 00:19:03;;;;;;;0.30;0.30;;;;;;;12.69;73.34;98191.44;346450;28;1328;-73
2023/01/15 00:19:15;;;;;;;0.40;0.38;;;;;;;12.61;73.65;98193.72;346113;28;1114;-73
2023/01/15 00:19:27;;;;;;;0.57;0.40;;;;;;;12.59;73.84;98192.97;345162;28;1172;-72
2023/01/15 00:19:39;;;;;;;3.13;0.40;;;;;;;12.57;73.85;98192.22;344882;28;1198;-73
2023/01/15 00:19:51;;;;;;;3.30;0.32;;;;;;;12.52;73.96;98194.31;344259;28;1877;-73
2023/01/15 00:20:03;;;;;;;3.00;0.30;;;;;;;12.59;73.79;98195.56;342200;28;1054;-73
2023/01/15 00:20:15;;;;;;;0.25;0.20;;;;;;;12.63;73.56;98197.06;342567;28;1910;-72
2023/01/15 00:20:27;;;;;;;0.47;0.30;;;;;;;12.64;73.40;98192.69;342514;28;1106;-73
2023/01/15 00:20:39;;;;;;;0.40;0.30;;;;;;;12.62;73.75;98198.00;340881;29;1096;-72
2023/01/15 00:21:01;;;;;;;0.47;0.25;;;;;;;12.62;73.92;98197.16;339883;29;1248;-72
2023/01/15 00:21:13;;;;;;;0.40;0.30;;;;;;;12.61;73.89;98193.72;340061;28;1470;-74
2023/01/15 00:21:26;;;;;;;0.60;0.40;;;;;;;12.65;73.97;98203.00;340214;28;1491;-75
2023/01/15 00:21:38;;;;;;;0.60;0.40;;;;;;;12.61;74.09;98198.09;343882;28;989;-73
2023/01/15 00:21:52;;;;;;;0.52;0.40;;;;;;;12.58;74.09;98193.91;343903;28;784;-74
2023/01/15 00:22:04;;;;;;;1.25;0.40;;;;;;;12.58;74.43;98193.91;344241;28;1171;-72
2023/01/15 00:22:16;;;;;;;1.25;0.40;;;;;;;12.60;74.44;98189.44;344860;28;1291;-74
2023/01/15 00:22:28;;;;;;;0.50;0.32;;;;;;;12.54;74.53;98193.28;345891;28;1351;-75
2023/01/15 00:22:40;;;;;;;0.68;0.30;;;;;;;12.58;74.51;98194.75;346457;28;1014;-73
2023/01/15 00:22:53;;;;;;;0.65;0.25;;;;;;;12.54;74.29;98195.06;345102;28;1625;-74
2023/01/15 00:23:04;;;;;;;0.40;0.30;;;;;;;12.54;74.50;98200.25;345691;28;1913;-75
2023/01/15 00:27:37;;;;;;;0.50;0.30;;;;;;;12.56;74.17;98190.56;346038;28;2286;-73
2023/01/15 00:27:39;;;;;;;0.82;0.32;;;;;;;12.56;74.32;98187.97;342283;28;1075;-73
2023/01/15 00:27:51;;;;;;;0.40;0.38;;;;;;;12.46;74.90;98190.31;343400;28;1379;-73
2023/01/15 00:28:03;;;;;;;0.30;0.30;;;;;;;12.45;75.18;98187.81;343820;28;1175;-73
2023/01/15 00:28:18;;;;;;;0.25;0.20;;;;;;;12.46;74.95;98181.69;343122;28;2002;-73
2023/01/15 00:28:30;;;;;;;0.30;0.22;;;;;;;12.44;74.87;98192.19;344054;28;749;-73
2023/01/15 00:28:42;;;;;;;0.30;0.25;;;;;;;12.45;75.25;98187.81;343583;28;1111;-73
2023/01/15 00:28:56;;;;;;;0.30;0.20;;;;;;;12.38;75.03;98188.19;343142;28;1980;-72
2023/01/15 00:29:08;;;;;;;0.28;0.20;;;;;;;12.38;75.26;98185.59;343616;28;1075;-72
2023/01/15 00:29:22;;;;;;;0.60;0.30;;;;;;;12.36;75.56;98184.84;343417;28;1317;-72
2023/01/15 00:29:36;;;;;;;0.63;0.30;;;;;;;12.36;75.82;98190.06;343432;28;1074;-72
2023/01/15 00:29:48;;;;;;;0.52;0.30;;;;;;;12.34;75.38;98186.72;343538;28;921;-72
2023/01/15 00:30:00;;;;;;;0.40;0.30;;;;;;;12.37;75.78;98180.47;342476;28;2013;-72
2023/01/15 00:30:14;;;;;;;0.32;0.30;;;;;;;12.42;75.49;98193.22;343482;28;1058;-72
2023/01/15 00:30:26;;;;;;;0.40;0.30;;;;;;;12.44;75.13;98189.59;343628;28;1026;-72
2023/01/15 00:30:42;;;;;;;0.40;0.30;;;;;;;12.45;74.75;98187.81;343396;28;1019;-72
2023/01/15 00:30:54;;;;;;;0.20;0.20;;;;;;;12.46;74.77;98194.72;343816;28;1179;-72
2023/01/15 00:31:06;;;;;;;0.60;0.20;;;;;;;12.37;74.65;98183.06;343700;28;1669;-72
2023/01/15 00:31:18;;;;;;;0.75;0.20;;;;;;;12.38;75.06;98193.41;343598;28;1270;-73
2023/01/15 00:31:34;;;;;;;1.50;0.30;;;;;;;12.39;75.21;98189.03;345015;28;1074;-73
2023/01/15 00:32:11;;;;;;;1.48;0.30;;;;;;;12.37;74.88;98181.34;345071;28;1026;-73
2023/01/15 00:32:26;;;;;;;0.22;0.20;;;;;;;12.45;74.86;98190.41;341529;28;2061;-74
2023/01/15 00:32:40;;;;;;;0.30;0.30;;;;;;;12.46;74.67;98179.06;343616;28;1265;-73
2023/01/15 00:32:52;;;;;;;0.40;0.20;;;;;;;12.44;74.73;98180.94;343691;28;1302;-74
2023/01/15 00:33:04;;;;;;;0.55;0.20;;;;;;;12.50;74.62;98183.16;344377;28;1051;-73
2023/01/15 00:33:16;;;;;;;0.55;0.20;;;;;;;12.48;74.73;98187.63;343236;28;1852;-76
2023/01/15 00:33:28;;;;;;;0.60;0.20;;;;;;;12.49;74.78;98189.28;343334;28;1339;-73
2023/01/15 00:33:40;;;;;;;0.22;0.20;;;;;;;12.46;75.03;98187.72;343944;28;835;-73
2023/01/15 00:33:51;;;;;;;0.17;0.17;;;;;;;12.44;74.75;98186.16;343686;28;1276;-72
2023/01/15 00:34:03;;;;;;;0.98;0.20;;;;;;;12.44;74.87;98180.94;343417;28;1275;-73
2023/01/15 00:34:15;;;;;;;1.10;0.30;;;;;;;12.35;75.30;98183.19;343154;28;1315;-73
2023/01/15 00:34:28;;;;;;;0.63;0.30;;;;;;;12.34;75.50;98181.50;343155;28;1897;-73
2023/01/15 00:34:40;;;;;;;0.55;0.20;;;;;;;12.29;75.57;98178.34;343515;28;1285;-73
2023/01/15 00:34:52;;;;;;;0.52;0.30;;;;;;;12.28;75.74;98176.69;343434;28;1079;-72
2023/01/15 00:35:05;;;;;;;0.45;0.20;;;;;;;12.25;75.91;98182.06;342121;28;2405;-73
2023/01/15 00:35:20;;;;;;;0.40;0.20;;;;;;;12.27;76.04;98180.22;342707;28;1181;-74
2023/01/15 00:35:32;;;;;;;0.40;0.20;;;;;;;12.29;76.19;98178.34;342578;28;852;-73
2023/01/15 00:35:44;;;;;;;1.30;0.28;;;;;;;12.33;76.14;98186.81;341922;28;1068;-73
2023/01/15 00:35:56;;;;;;;1.33;0.30;;;;;;;12.37;76.08;98181.34;341880;28;1301;-73
2023/01/15 00:36:10;;;;;;;0.52;0.30;;;;;;;12.37;76.17;98170.91;341932;28;1055;-73
2023/01/15 00:36:22;;;;;;;0.20;0.20;;;;;;;12.41;76.19;98176.75;342457;28;1920;-73
2023/01/15 00:36:36;;;;;;;0.28;0.28;;;;;;;12.42;75.84;98177.59;343399;28;1275;-73
2023/01/15 00:36:49;;;;;;;0.20;0.20;;;;;;;12.41;75.78;98181.13;343161;28;1650;-74
2023/01/15 00:37:02;;;;;;;0.20;0.20;;;;;;;12.45;75.60;98177.38;344914;28;1166;-75
2023/01/15 00:37:14;;;;;;;0.20;0.20;;;;;;;12.45;75.52;98172.16;344821;28;1015;-73
2023/01/15 00:37:26;;;;;;;0.30;0.30;;;;;;;12.49;75.52;98171.03;344858;28;1204;-73
2023/01/15 00:37:38;;;;;;;0.30;0.30;;;;;;;12.48;75.51;98172.00;344079;28;1791;-75
2023/01/15 00:37:50;;;;;;;0.43;0.20;;;;;;;12.48;74.93;98169.38;344956;28;1103;-73
2023/01/15 00:38:02;;;;;;;0.57;0.20;;;;;;;12.53;74.95;98173.34;344385;28;1923;-73
2023/01/15 00:38:14;;;;;;;0.80;0.20;;;;;;;12.53;74.55;98169.91;344678;28;2030;-73
2023/01/15 00:38:26;;;;;;;0.47;0.20;;;;;;;12.50;74.58;98172.72;344651;28;1405;-72
2023/01/15 00:38:41;;;;;;;0.43;0.20;;;;;;;12.59;74.15;98167.72;344505;28;1766;-75
2023/01/15 00:38:53;;;;;;;0.40;0.20;;;;;;;12.65;74.32;98165.69;345091;28;1040;-74
2023/01/15 00:39:05;;;;;;;0.30;0.25;;;;;;;12.60;74.29;98179.03;343950;28;1312;-75
2023/01/15 00:39:17;;;;;;;0.20;0.20;;;;;;;12.61;74.38;98182.44;343697;28;1247;-75
2023/01/15 00:39:29;;;;;;;0.20;0.20;;;;;;;12.65;74.42;98169.13;344865;28;1055;-73
2023/01/15 00:39:41;;;;;;;0.20;0.20;;;;;;;12.63;74.23;98163.16;343988;28;1920;-74
2023/01/15 00:39:53;;;;;;;0.20;0.20;;;;;;;12.59;74.02;98169.50;344005;28;1427;-73
2023/01/15 00:40:06;;;;;;;0.60;0.30;;;;;;;12.57;74.31;98160.94;343484;28;1082;-73
2023/01/15 00:40:20;;;;;;;0.57;0.28;;;;;;;12.56;74.41;98161.91;343709;28;1301;-72
2023/01/15 00:40:32;;;;;;;0.60;0.30;;;;;;;12.58;74.21;98157.44;344644;28;1050;-73
2023/01/15 00:40:44;;;;;;;0.30;0.25;;;;;;;12.59;74.34;98161.69;343324;28;1513;-74
2023/01/15 00:40:56;;;;;;;0.35;0.20;;;;;;;12.53;74.38;98162.09;343276;28;1968;-73
2023/01/15 00:41:08;;;;;;;0.60;0.20;;;;;;;12.51;74.80;98156.13;343605;28;1028;-73
2023/01/15 00:41:20;;;;;;;0.60;0.30;;;;;;;12.51;74.78;98154.34;342861;28;1818;-73
2023/01/15 00:41:32;;;;;;;0.20;0.20;;;;;;;12.58;74.54;98162.63;342591;28;1592;-73
2023/01/15 00:41:45;;;;;;;0.20;0.20;;;;;;;12.59;74.93;98153.88;341998;28;1760;-73
2023/01/15 00:41:57;;;;;;;0.40;0.20;;;;;;;12.58;74.61;98153.03;341440;28;2058;-74
2023/01/15 00:42:12;;;;;;;0.40;0.20;;;;;;;12.59;74.12;98154.69;343718;28;1201;-75
2023/01/15 00:42:24;;;;;;;0.20;0.20;;;;;;;12.54;74.40;98161.16;344877;28;1836;-73
2023/01/15 00:42:39;;;;;;;0.50;0.20;;;;;;;12.56;74.37;98154.91;344843;28;1018;-73
2023/01/15 00:42:51;;;;;;;0.70;0.30;;;;;;;12.56;74.37;98160.13;344581;28;1380;-75
2023/01/15 00:43:05;;;;;;;0.30;0.20;;;;;;;12.55;74.19;98165.44;344279;28;1521;-76
2023/01/15 00:43:17;;;;;;;0.17;0.17;;;;;;;12.59;74.17;98159.09;344594;28;1980;-75
2023/01/15 00:43:29;;;;;;;0.20;0.20;;;;;;;12.60;73.92;98160.78;345962;28;1468;-75
2023/01/15 00:43:41;;;;;;;0.20;0.20;;;;;;;12.64;73.81;98161.41;345025;28;999;-76
2023/01/15 00:43:54;;;;;;;0.20;0.20;;;;;;;12.65;74.04;98163.91;345075;28;1035;-75
2023/01/15 00:44:06;;;;;;;0.25;0.20;;;;;;;12.67;73.57;98154.22;342846;28;1942;-73
2023/01/15 00:44:19;;;;;;;0.30;0.20;;;;;;;12.67;73.62;98164.63;341367;28;1299;-73
2023/01/15 00:44:32;;;;;;;0.45;0.25;;;;;;;12.63;73.83;98163.16;341186;28;1035;-72
2023/01/15 00:44:45;;;;;;;0.40;0.20;;;;;;;12.61;74.19;98154.59;341062;29;781;-73
2023/01/15 00:44:57;;;;;;;0.40;0.25;;;;;;;12.62;74.32;98148.47;342336;28;1071;-76
2023/01/15 00:45:11;;;;;;;0.30;0.30;;;;;;;12.60;73.85;98155.56;339787;28;1990;-75
2023/01/15 00:45:23;;;;;;;0.30;0.30;;;;;;;12.62;73.57;98145.88;339430;29;1211;-73
2023/01/15 00:45:35;;;;;;;0.20;0.20;;;;;;;12.67;73.56;98149.00;339864;29;719;-77
2023/01/15 00:45:47;;;;;;;0.40;0.20;;;;;;;12.69;73.41;98149.72;340862;29;1040;-72
2023/01/15 00:45:59;;;;;;;0.70;0.20;;;;;;;12.66;73.65;98152.56;341163;28;1135;-73
2023/01/15 00:46:12;;;;;;;0.50;0.20;;;;;;;12.69;73.86;98149.72;340897;28;1852;-75
2023/01/15 00:46:24;;;;;;;0.13;0.10;;;;;;;12.69;73.61;98154.94;342962;28;1402;-75
2023/01/15 00:46:36;;;;;;;0.20;0.20;;;;;;;12.64;73.46;98157.03;342341;28;1019;-73
2023/01/15 00:46:48;;;;;;;0.25;0.20;;;;;;;12.63;73.90;98157.94;343861;28;1160;-73
2023/01/15 00:47:01;;;;;;;0.30;0.20;;;;;;;12.61;73.88;98152.00;343738;28;1043;-73
2023/01/15 00:47:14;;;;;;;0.40;0.30;;;;;;;12.60;73.94;98150.34;344297;28;2139;-76
2023/01/15 00:47:26;;;;;;;0.30;0.20;;;;;;;12.59;74.50;98159.91;345555;28;2127;-74
2023/01/15 00:47:49;;;;;;;0.30;0.20;;;;;;;12.65;73.88;98156.06;345895;28;1098;-73
2023/01/15 00:48:01;;;;;;;0.20;0.20;;;;;;;12.63;73.25;98155.34;346584;28;854;-73
2023/01/15 00:48:13;;;;;;;0.20;0.20;;;;;;;12.69;73.34;98149.72;344638;28;1716;-73
2023/01/15 00:48:25;;;;;;;0.15;0.15;;;;;;;12.70;73.14;98143.59;345941;28;1918;-73
2023/01/15 00:48:38;;;;;;;0.20;0.20;;;;;;;12.63;73.14;98152.75;346363;28;1082;-72
2023/01/15 00:48:50;;;;;;;0.28;0.20;;;;;;;12.63;73.44;98155.34;346091;28;757;-73
2023/01/15 00:49:03;;;;;;;0.30;0.20;;;;;;;12.66;73.87;98154.31;345026;28;1190;-73
2023/01/15 00:49:15;;;;;;;0.20;0.20;;;;;;;12.67;73.80;98151.59;344659;28;1023;-73
2023/01/15 00:49:27;;;;;;;0.20;0.20;;;;;;;12.69;73.81;98149.72;342243;28;1844;-74
2023/01/15 00:49:41;;;;;;;0.20;0.20;;;;;;;12.67;73.53;98158.59;342275;28;2308;-76
2023/01/15 00:49:53;;;;;;;0.20;0.20;;;;;;;12.58;73.65;98155.66;343740;28;1313;-73
2023/01/15 00:50:07;;;;;;;0.35;0.22;;;;;;;12.56;73.98;98149.69;343601;28;1090;-72
2023/01/15 00:50:19;;;;;;;0.50;0.20;;;;;;;12.54;74.16;98150.75;342755;28;2066;-75
2023/01/15 00:50:31;;;;;;;0.50;0.20;;;;;;;12.53;74.03;98169.91;342121;28;1622;-75
2023/01/15 00:50:44;;;;;;;0.15;0.10;;;;;;;12.64;73.23;98151.81;342843;28;1616;-74
2023/01/15 00:50:56;;;;;;;0.17;0.17;;;;;;;12.65;73.12;98148.25;343592;28;1066;-75
2023/01/15 00:51:08;;;;;;;0.10;0.10;;;;;;;12.76;72.60;98140.59;343619;28;1687;-73
2023/01/15 00:51:20;;;;;;;0.13;0.13;;;;;;;12.76;72.50;98151.00;343482;28;1236;-73
2023/01/15 00:51:32;;;;;;;0.35;0.20;;;;;;;12.78;72.59;98130.06;343848;28;1158;-72
2023/01/15 00:51:44;;;;;;;0.30;0.20;;;;;;;12.73;72.58;98140.75;342942;28;1363;-73
2023/01/15 00:51:56;;;;;;;0.25;0.20;;;;;;;12.76;72.40;98150.19;345007;28;1220;-73
2023/01/15 00:52:10;;;;;;;0.30;0.20;;;;;;;12.79;71.94;98150.78;343661;28;1058;-73
2023/01/15 00:52:21;;;;;;;0.30;0.20;;;;;;;12.75;71.64;98132.84;345078;28;1325;-74
2023/01/15 00:52:34;;;;;;;0.30;0.20;;;;;;;12.77;71.88;98138.81;345193;28;1963;-75
2023/01/15 00:52:45;;;;;;;0.20;0.20;;;;;;;12.78;72.04;98149.13;343862;28;2660;-76
2023/01/15 00:52:57;;;;;;;0.20;0.20;;;;;;;12.71;72.20;98145.25;343567;28;1061;-75
2023/01/15 00:53:09;;;;;;;0.20;0.20;;;;;;;12.72;72.54;98144.31;343569;28;1775;-76
2023/01/15 00:53:21;;;;;;;0.20;0.20;;;;;;;12.66;72.33;98144.72;343302;28;1375;-74
2023/01/15 00:53:36;;;;;;;0.20;0.20;;;;;;;12.67;72.69;98146.38;343382;28;1143;-73
2023/01/15 00:53:48;;;;;;;0.20;0.20;;;;;;;12.59;73.04;98144.28;342867;28;1894;-73
2023/01/15 00:54:00;;;;;;;0.20;0.20;;;;;;;12.52;73.23;98150.00;342847;28;1042;-73
2023/01/15 00:54:12;;;;;;;0.20;0.20;;;;;;;12.53;73.28;98149.06;341505;28;1746;-77
2023/01/15 00:54:24;;;;;;;0.20;0.20;;;;;;;12.53;73.50;98149.06;341678;28;1669;-73
2023/01/15 00:54:36;;;;;;;0.20;0.20;;;;;;;12.67;72.82;98145.56;342257;28;1164;-73
2023/01/15 00:54:48;;;;;;;0.20;0.20;;;;;;;12.72;72.68;98153.94;341566;28;1724;-75
2023/01/15 00:55:01;;;;;;;0.20;0.20;;;;;;;12.73;72.39;98148.59;342144;28;1217;-73
2023/01/15 00:55:13;;;;;;;0.20;0.20;;;;;;;12.73;72.19;98140.75;342663;28;1230;-74
2023/01/15 00:55:25;;;;;;;0.20;0.20;;;;;;;12.70;72.52;98140.97;342390;28;1984;-73
2023/01/15 00:55:37;;;;;;;0.20;0.20;;;;;;;12.69;72.28;98149.72;343126;28;1103;-73
2023/01/15 00:55:49;;;;;;;0.10;0.10;;;;;;;12.68;72.73;98137.66;343503;28;1200;-72
2023/01/15 00:56:01;;;;;;;0.17;0.17;;;;;;;12.60;72.54;98145.13;341657;28;1425;-73
2023/01/15 00:56:13;;;;;;;0.20;0.20;;;;;;;12.57;72.81;98138.31;343828;28;1055;-73
2023/01/15 00:56:25;;;;;;;0.32;0.20;;;;;;;12.66;72.46;98136.91;343744;28;1155;-72
2023/01/15 00:56:37;;;;;;;0.70;0.20;;;;;;;12.63;72.87;98138.88;343729;28;1051;-73
2023/01/15 00:56:49;;;;;;;0.93;0.20;;;;;;;12.58;72.65;98136.56;344317;28;1735;-73
2023/01/15 00:57:01;;;;;;;0.40;0.20;;;;;;;12.64;73.00;98140.56;343963;28;1383;-74
2023/01/15 00:57:13;;;;;;;0.43;0.20;;;;;;;12.67;72.68;98140.34;344922;28;1051;-72
2023/01/15 00:57:25;;;;;;;0.20;0.20;;;;;;;12.65;73.02;98135.22;344615;28;1318;-73
2023/01/15 00:57:37;;;;;;;0.38;0.20;;;;;;;12.62;72.68;98138.03;344993;28;744;-73
2023/01/15 00:57:49;;;;;;;0.47;0.20;;;;;;;12.64;73.22;98145.78;344815;28;1240;-73
2023/01/15 00:58:01;;;;;;;0.50;0.30;;;;;;;12.61;72.92;98141.56;344489;28;1845;-76
2023/01/15 00:58:13;;;;;;;0.40;0.20;;;;;;;12.57;72.86;98129.69;344160;28;1673;-73
2023/01/15 00:58:25;;;;;;;0.20;0.20;;;;;;;12.59;73.09;98130.41;344803;28;1283;-73
2023/01/15 00:58:37;;;;;;;0.20;0.20;;;;;;;12.63;73.19;98134.50;344852;28;1167;-72
2023/01/15 00:58:49;;;;;;;0.22;0.22;;;;;;;12.63;72.87;98142.31;344636;28;1199;-73
2023/01/15 00:59:03;;;;;;;0.38;0.28;;;;;;;12.58;72.92;98136.56;343622;28;1108;-73
2023/01/15 00:59:15;;;;;;;0.40;0.28;;;;;;;12.56;73.03;98128.03;342403;28;1658;-73
2023/01/15 00:59:27;;;;;;;0.30;0.20;;;;;;;12.63;72.90;98129.28;342380;28;1100;-72
2023/01/15 00:59:39;;;;;;;0.50;0.20;;;;;;;12.68;72.66;98119.41;342247;28;1031;-72
2023/01/15 00:59:51;;;;;;;0.47;0.20;;;;;;;12.71;72.19;98120.97;343509;28;1133;-72
2023/01/15 01:00:04;;;;;;;2.00;0.20;;;;;;;12.74;72.09;98126.81;343435;28;1239;-72
2023/01/15 01:00:17;;;;;;;1.98;0.20;;;;;;;12.78;72.19;98125.66;342678;28;1966;-75
2023/01/15 01:00:29;;;;;;;0.20;0.20;;;;;;;12.69;72.37;98128.88;342569;28;1548;-73
2023/01/15 01:00:41;;;;;;;0.20;0.20;;;;;;;12.73;72.75;98132.94;343111;28;1915;-73
2023/01/15 01:00:57;;;;;;;0.20;0.20;;;;;;;12.83;71.67;98129.75;344128;28;2637;-72
2023/01/15 01:01:09;;;;;;;0.60;0.20;;;;;;;12.87;71.36;98136.44;344973;28;1094;-73
2023/01/15 01:01:21;;;;;;;0.60;0.20;;;;;;;12.90;71.15;98107.56;344110;28;1383;-72
2023/01/15 01:01:34;;;;;;;0.20;0.20;;;;;;;12.93;71.13;98146.44;345190;28;1141;-74
2023/01/15 01:01:46;;;;;;;0.15;0.15;;;;;;;12.89;71.17;98129.34;344856;28;1292;-73
2023/01/15 01:01:58;;;;;;;0.20;0.20;;;;;;;12.89;71.28;98124.13;344064;28;1023;-73
2023/01/15 01:02:13;;;;;;;0.20;0.20;;;;;;;12.90;71.18;98131.03;343410;28;1285;-73
2023/01/15 01:02:25;;;;;;;0.20;0.20;;;;;;;12.79;71.38;98132.53;341699;28;1571;-73
2023/01/15 01:02:37;;;;;;;0.60;0.20;;;;;;;12.78;71.76;98138.72;343421;28;1909;-73
2023/01/15 01:02:49;;;;;;;0.60;0.20;;;;;;;12.80;71.85;98136.00;343462;28;1339;-73
2023/01/15 01:03:01;;;;;;;0.20;0.20;;;;;;;12.72;71.91;98138.28;343372;28;1134;-73
2023/01/15 01:03:13;;;;;;;0.10;0.10;;;;;;;12.73;71.74;98134.72;343656;28;1288;-72
2023/01/15 01:03:26;;;;;;;0.50;0.10;;;;;;;12.72;71.69;98133.06;342903;28;2664;-75
2023/01/15 01:03:38;;;;;;;0.50;0.10;;;;;;;12.73;72.01;98140.75;342325;28;1065;-74
2023/01/15 01:03:51;;;;;;;0.20;0.20;;;;;;;12.76;71.80;98135.38;342284;28;1304;-75
2023/01/15 01:04:03;;;;;;;0.20;0.20;;;;;;;12.76;71.72;98134.53;342316;28;1161;-75
2023/01/15 01:04:16;;;;;;;0.20;0.20;;;;;;;12.79;71.65;98129.94;341130;28;1079;-75
2023/01/15 01:04:28;;;;;;;0.13;0.13;;;;;;;12.79;71.58;98135.16;343288;28;1255;-73
2023/01/15 01:04:40;;;;;;;0.20;0.10;;;;;;;12.82;71.48;98141.09;342992;28;2119;-74
2023/01/15 01:04:52;;;;;;;0.25;0.17;;;;;;;12.86;71.10;98129.53;343668;28;1070;-73
2023/01/15 01:05:04;;;;;;;0.40;0.20;;;;;;;12.82;70.99;98133.28;343691;28;1213;-73
2023/01/15 01:05:16;;;;;;;0.45;0.20;;;;;;;12.79;71.44;98140.38;343385;28;1200;-73
2023/01/15 01:05:31;;;;;;;0.35;0.20;;;;;;;12.75;71.54;98136.28;342892;28;1920;-72
2023/01/15 01:05:43;;;;;;;0.32;0.20;;;;;;;12.75;71.53;98136.28;344012;28;1667;-73